createdAt,value
2023-02-08T00:00:33.566Z,63.47
2023-02-08T00:03:37.069Z,59.47
2023-02-08T00:06:40.197Z,60.10
2023-02-08T00:09:46.069Z,58.00
2023-02-08T00:12:52.222Z,61.17
2023-02-08T00:15:56.996Z,60.20
2023-02-08T00:19:00.115Z,56.07
2023-02-08T00:22:03.362Z,55.40
2023-02-08T00:25:07.974Z,58.33
2023-02-08T00:28:16.203Z,58.80
2023-02-08T00:31:21.774Z,55.43
2023-02-08T00:34:25.948Z,59.73
2023-02-08T00:37:29.169Z,58.07
2023-02-08T00:40:32.398Z,55.77
2023-02-08T00:43:38.437Z,59.27
2023-02-08T00:46:42.836Z,65.60
2023-02-08T00:49:47.130Z,55.00
2023-02-08T00:52:50.998Z,56.37
2023-02-08T00:55:55.252Z,57.80
2023-02-08T00:58:58.367Z,52.20
2023-02-08T01:02:04.977Z,58.93
2023-02-08T01:05:08.955Z,55.00
2023-02-08T01:08:12.145Z,59.10
2023-02-08T01:11:20.019Z,58.30
2023-02-08T01:14:23.398Z,54.33
2023-02-08T01:17:30.449Z,61.37
2023-02-08T01:20:37.048Z,67.10
2023-02-08T01:23:42.227Z,60.37
2023-02-08T01:26:47.044Z,64.87
2023-02-08T01:29:53.648Z,54.03
2023-02-08T01:33:01.043Z,63.27
2023-02-08T01:36:07.175Z,55.50
2023-02-08T01:39:12.855Z,56.03
2023-02-08T01:42:17.729Z,54.80
2023-02-08T01:45:28.164Z,52.73
2023-02-08T01:48:38.161Z,56.93
2023-02-08T01:51:46.672Z,57.73
2023-02-08T01:54:54.894Z,51.47
2023-02-08T01:58:05.777Z,62.00
2023-02-08T02:01:10.084Z,59.00
2023-02-08T02:04:15.782Z,55.20
2023-02-08T02:07:21.427Z,55.63
2023-02-08T02:10:35.120Z,50.30
2023-02-08T02:13:42.689Z,52.50
2023-02-08T02:16:46.957Z,53.77
2023-02-08T02:19:58.381Z,49.93
2023-02-08T02:23:58.078Z,53.40
2023-02-08T02:27:27.329Z,52.80
2023-02-08T02:31:26.807Z,58.57
2023-02-08T02:34:55.161Z,55.20
2023-02-08T02:38:11.546Z,55.03
2023-02-08T02:41:41.406Z,52.30
2023-02-08T02:44:59.481Z,53.00
2023-02-08T02:48:13.072Z,51.80
2023-02-08T02:51:25.268Z,49.90
2023-02-08T02:54:37.666Z,56.60
2023-02-08T02:57:45.919Z,50.43
2023-02-08T03:00:54.920Z,49.37
2023-02-08T03:04:00.973Z,45.90
2023-02-08T03:07:15.290Z,47.37
2023-02-08T03:10:38.732Z,52.43
2023-02-08T03:14:20.374Z,48.83
2023-02-08T03:17:47.045Z,48.17
2023-02-08T03:21:02.204Z,45.77
2023-02-08T03:24:20.177Z,51.20
2023-02-08T03:27:32.883Z,44.13
2023-02-08T03:30:51.133Z,44.40
2023-02-08T03:34:05.999Z,43.37
2023-02-08T03:37:22.395Z,43.23
2023-02-08T03:40:32.425Z,46.00
2023-02-08T03:43:39.736Z,42.30
2023-02-08T03:46:48.353Z,41.60
2023-02-08T03:49:54.567Z,37.70
2023-02-08T03:53:00.429Z,36.23
2023-02-08T03:56:12.258Z,43.10
2023-02-08T03:59:23.234Z,41.20
2023-02-08T04:02:31.392Z,46.63
2023-02-08T04:05:34.844Z,39.27
2023-02-08T04:08:41.710Z,44.53
2023-02-08T04:11:44.724Z,42.90
2023-02-08T04:14:48.375Z,40.07
2023-02-08T04:17:51.449Z,40.07
2023-02-08T04:20:54.754Z,43.77
2023-02-08T04:23:59.155Z,40.80
2023-02-08T04:27:06.040Z,43.17
2023-02-08T04:30:10.830Z,47.30
2023-02-08T04:33:14.985Z,43.37
2023-02-08T04:36:18.042Z,43.03
2023-02-08T04:39:22.371Z,40.03
2023-02-08T04:42:25.354Z,37.57
2023-02-08T04:45:29.898Z,35.53
2023-02-08T04:48:33.026Z,36.30
2023-02-08T04:51:38.729Z,42.53
2023-02-08T04:54:43.131Z,37.67
2023-02-08T04:57:46.194Z,38.63
2023-02-08T05:00:49.296Z,38.40
2023-02-08T05:03:52.413Z,41.67
2023-02-08T05:06:55.960Z,38.20
2023-02-08T05:10:06.763Z,39.73
2023-02-08T05:13:12.813Z,41.07
2023-02-08T05:16:16.664Z,43.07
2023-02-08T05:19:19.785Z,45.67
2023-02-08T05:22:22.854Z,39.53
2023-02-08T05:25:27.259Z,40.43
2023-02-08T05:28:30.341Z,42.37
2023-02-08T05:31:33.646Z,40.17
2023-02-08T05:34:38.561Z,44.23
2023-02-08T05:37:44.480Z,42.33
2023-02-08T05:40:49.022Z,39.47
2023-02-08T05:44:01.317Z,41.40
2023-02-08T05:47:06.318Z,40.03
2023-02-08T05:50:37.038Z,43.10
2023-02-08T05:53:50.312Z,36.80
2023-02-08T05:56:55.067Z,36.60
2023-02-08T06:00:03.788Z,38.53
2023-02-08T06:03:21.501Z,41.20
2023-02-08T06:06:33.684Z,41.77
2023-02-08T06:09:40.232Z,43.07
2023-02-08T06:12:47.382Z,40.90
2023-02-08T06:15:51.101Z,44.60
2023-02-08T06:18:54.424Z,43.83
2023-02-08T06:22:14.250Z,44.70
2023-02-08T06:25:20.966Z,43.67
2023-02-08T06:28:38.455Z,45.90
2023-02-08T06:32:46.183Z,46.53
2023-02-08T06:36:19.694Z,44.53
2023-02-08T06:39:32.099Z,41.47
2023-02-08T06:42:35.974Z,43.20
2023-02-08T06:45:40.493Z,45.97
2023-02-08T06:48:43.547Z,48.27
2023-02-08T06:51:47.072Z,47.17
2023-02-08T06:54:50.153Z,45.13
2023-02-08T06:57:54.831Z,46.47
2023-02-08T07:00:59.308Z,55.13
2023-02-08T07:04:02.559Z,51.03
2023-02-08T07:07:05.701Z,48.77
2023-02-08T07:10:09.403Z,48.67
2023-02-08T07:13:12.651Z,46.03
2023-02-08T07:16:18.658Z,47.23
2023-02-08T07:19:22.398Z,53.60
2023-02-08T07:22:25.719Z,50.63
2023-02-08T07:25:28.691Z,47.90
2023-02-08T07:28:32.521Z,56.37
2023-02-08T07:31:38.963Z,48.37
2023-02-08T07:34:45.593Z,48.37
2023-02-08T07:37:48.816Z,47.13
2023-02-08T07:40:51.921Z,47.07
2023-02-08T07:43:55.064Z,46.13
2023-02-08T07:46:59.577Z,48.37
2023-02-08T07:50:02.640Z,48.00
2023-02-08T07:53:05.823Z,48.03
2023-02-08T07:56:10.331Z,56.27
2023-02-08T07:59:16.424Z,55.60
2023-02-08T08:02:20.918Z,52.33
2023-02-08T08:05:24.495Z,58.47
2023-02-08T08:08:27.627Z,54.90
2023-02-08T08:11:30.768Z,53.23
2023-02-08T08:14:34.306Z,52.60
2023-02-08T08:17:42.160Z,54.83
2023-02-08T08:20:45.541Z,55.67
2023-02-08T08:23:48.576Z,50.67
2023-02-08T08:26:51.852Z,57.40
2023-02-08T08:29:55.651Z,51.70
2023-02-08T08:33:00.005Z,57.23
2023-02-08T08:36:05.557Z,52.70
2023-02-08T08:39:08.650Z,55.67
2023-02-08T08:42:13.699Z,50.90
2023-02-08T08:45:17.012Z,55.67
2023-02-08T08:48:21.806Z,53.40
2023-02-08T08:51:24.951Z,51.30
2023-02-08T08:54:30.829Z,54.93
2023-02-08T08:57:34.236Z,54.87
2023-02-08T09:00:37.333Z,53.50
2023-02-08T09:03:41.756Z,54.07
2023-02-08T09:06:45.296Z,55.33
2023-02-08T09:09:48.685Z,54.83
2023-02-08T09:12:53.047Z,52.50
2023-02-08T09:15:56.225Z,50.57
2023-02-08T09:19:03.431Z,53.33
2023-02-08T09:22:08.113Z,51.37
2023-02-08T09:25:11.378Z,47.50
2023-02-08T09:28:14.864Z,48.70
2023-02-08T09:31:22.324Z,50.57
2023-02-08T09:34:27.076Z,48.90
2023-02-08T09:37:34.034Z,55.13
2023-02-08T09:40:47.957Z,53.50
2023-02-08T09:44:01.122Z,56.53
2023-02-08T09:47:13.090Z,53.37
2023-02-08T09:50:23.111Z,50.40
2023-02-08T09:53:34.309Z,52.07
2023-02-08T09:56:42.295Z,52.47
2023-02-08T09:59:53.854Z,53.57
2023-02-08T10:02:59.893Z,57.10
2023-02-08T10:06:06.252Z,57.93
2023-02-08T10:09:15.723Z,54.77
2023-02-08T10:12:31.004Z,50.87
2023-02-08T10:15:42.248Z,53.83
2023-02-08T10:18:51.727Z,53.27
2023-02-08T10:22:11.493Z,51.30
2023-02-08T10:25:43.600Z,56.80
2023-02-08T10:29:27.116Z,53.37
2023-02-08T10:32:48.205Z,57.10
2023-02-08T10:35:52.784Z,53.90
2023-02-08T10:38:58.111Z,53.47
2023-02-08T10:42:01.364Z,49.27
2023-02-08T10:45:24.191Z,53.83
2023-02-08T10:48:42.548Z,50.87
2023-02-08T10:51:46.800Z,49.03
2023-02-08T10:54:51.400Z,52.03
2023-02-08T10:58:00.323Z,56.53
2023-02-08T11:01:03.991Z,55.03
2023-02-08T11:04:11.286Z,51.90
2023-02-08T11:07:22.122Z,44.90
2023-02-08T11:10:27.659Z,55.90
2023-02-08T11:13:36.769Z,51.53
2023-02-08T11:16:43.469Z,49.87
2023-02-08T11:19:48.477Z,48.53
2023-02-08T11:22:51.899Z,49.73
2023-02-08T11:26:15.673Z,47.60
2023-02-08T11:29:23.121Z,44.77
2023-02-08T11:32:26.247Z,49.47
2023-02-08T11:35:33.758Z,46.87
2023-02-08T11:38:42.503Z,47.53
2023-02-08T11:41:48.548Z,46.33
2023-02-08T11:44:52.316Z,52.67
2023-02-08T11:47:55.857Z,51.67
2023-02-08T11:51:02.321Z,46.90
2023-02-08T11:54:07.920Z,45.90
2023-02-08T11:57:20.263Z,46.43
2023-02-08T12:00:27.792Z,43.57
2023-02-08T12:03:35.217Z,46.47
2023-02-08T12:07:10.816Z,44.43
2023-02-08T12:10:57.448Z,42.27
2023-02-08T12:14:27.059Z,46.10
2023-02-08T12:17:54.749Z,45.73
2023-02-08T12:21:05.604Z,40.07
2023-02-08T12:24:18.515Z,43.57
2023-02-08T12:27:41.937Z,44.17
2023-02-08T12:30:53.799Z,46.17
2023-02-08T12:34:27.619Z,43.63
2023-02-08T12:38:04.842Z,48.07
2023-02-08T12:41:19.068Z,47.33
2023-02-08T12:44:39.949Z,44.47
2023-02-08T12:48:14.243Z,45.03
2023-02-08T12:51:45.584Z,46.03
2023-02-08T12:55:01.297Z,46.60
2023-02-08T12:58:25.705Z,42.20
2023-02-08T13:01:51.249Z,45.30
2023-02-08T13:04:59.819Z,47.47
2023-02-08T13:08:14.343Z,44.93
2023-02-08T13:11:25.598Z,49.73
2023-02-08T13:14:37.447Z,43.20
2023-02-08T13:17:51.762Z,43.30
2023-02-08T13:21:09.619Z,50.10
2023-02-08T13:24:27.826Z,41.50
2023-02-08T13:27:33.542Z,45.93
2023-02-08T13:30:41.701Z,44.57
2023-02-08T13:34:01.984Z,45.83
2023-02-08T13:37:25.506Z,43.27
2023-02-08T13:40:32.222Z,43.10
2023-02-08T13:43:41.434Z,44.23
2023-02-08T13:46:48.585Z,48.57
2023-02-08T13:49:59.976Z,43.37
2023-02-08T13:53:05.529Z,41.67
2023-02-08T13:56:12.247Z,45.57
2023-02-08T13:59:37.496Z,41.83
2023-02-08T14:03:00.661Z,42.80
2023-02-08T14:06:07.654Z,43.33
2023-02-08T14:09:21.762Z,47.57
2023-02-08T14:12:35.018Z,43.70
2023-02-08T14:15:43.489Z,43.97
2023-02-08T14:18:54.487Z,46.97
2023-02-08T14:22:03.714Z,47.07
2023-02-08T14:25:19.237Z,42.83
2023-02-08T14:28:34.075Z,44.23
2023-02-08T14:31:48.009Z,42.70
2023-02-08T14:35:05.317Z,39.73
2023-02-08T14:38:53.946Z,38.07
2023-02-08T14:42:03.917Z,41.17
2023-02-08T14:45:29.759Z,43.90
2023-02-08T14:48:36.796Z,41.00
2023-02-08T14:51:51.908Z,37.73
2023-02-08T14:55:04.008Z,38.93
2023-02-08T14:58:20.856Z,41.03
2023-02-08T15:01:43.958Z,39.50
2023-02-08T15:04:47.972Z,41.33
2023-02-08T15:07:56.846Z,40.63
2023-02-08T15:11:00.212Z,40.67
2023-02-08T15:14:06.824Z,40.47
2023-02-08T15:17:29.301Z,46.03
2023-02-08T15:20:44.111Z,43.07
2023-02-08T15:24:01.141Z,46.57
2023-02-08T15:27:21.618Z,56.30
2023-02-08T15:30:34.539Z,47.47
2023-02-08T15:33:47.188Z,47.17
2023-02-08T15:36:55.674Z,45.27
2023-02-08T15:40:01.063Z,40.97
2023-02-08T15:43:15.714Z,44.30
2023-02-08T15:46:26.730Z,45.30
2023-02-08T15:49:33.309Z,45.40
2023-02-08T15:52:42.557Z,43.20
2023-02-08T15:55:51.185Z,41.00
2023-02-08T15:58:57.014Z,39.53
2023-02-08T16:02:19.402Z,38.90
2023-02-08T16:05:28.533Z,41.83
2023-02-08T16:08:35.438Z,42.10
2023-02-08T16:11:38.959Z,46.77
2023-02-08T16:14:52.436Z,39.43
2023-02-08T16:17:57.607Z,40.70
2023-02-08T16:21:02.700Z,41.17
2023-02-08T16:24:21.670Z,39.13
2023-02-08T16:27:28.960Z,45.97
2023-02-08T16:30:35.471Z,39.90
2023-02-08T16:33:40.144Z,42.77
2023-02-08T16:36:51.138Z,46.47
2023-02-08T16:39:57.597Z,44.73
2023-02-08T16:43:18.019Z,40.00
2023-02-08T16:46:27.888Z,43.00
2023-02-08T16:49:32.435Z,45.77
2023-02-08T16:52:36.289Z,41.97
2023-02-08T16:55:39.424Z,46.27
2023-02-08T16:58:48.422Z,42.10
2023-02-08T17:01:56.545Z,44.40
2023-02-08T17:05:01.380Z,44.30
2023-02-08T17:08:07.818Z,47.53
2023-02-08T17:11:11.287Z,43.73
2023-02-08T17:14:15.691Z,44.23
2023-02-08T17:17:20.049Z,44.63
2023-02-08T17:20:27.303Z,45.33
2023-02-08T17:23:30.448Z,43.20
2023-02-08T17:26:48.582Z,42.27
2023-02-08T17:29:55.589Z,41.83
2023-02-08T17:33:01.669Z,46.57
2023-02-08T17:36:07.922Z,47.40
2023-02-08T17:39:12.401Z,41.10
2023-02-08T17:42:18.526Z,44.20
2023-02-08T17:45:22.509Z,47.90
2023-02-08T17:48:26.855Z,50.83
2023-02-08T17:51:32.141Z,47.70
2023-02-08T17:54:36.872Z,44.93
2023-02-08T17:57:42.571Z,40.87
2023-02-08T18:00:46.240Z,46.30
2023-02-08T18:03:51.190Z,47.87
2023-02-08T18:06:58.732Z,41.90
2023-02-08T18:10:04.130Z,45.57
2023-02-08T18:13:07.805Z,46.40
2023-02-08T18:16:14.210Z,41.10
2023-02-08T18:19:17.507Z,45.33
2023-02-08T18:22:22.924Z,40.80
2023-02-08T18:25:28.123Z,42.00
2023-02-08T18:28:31.317Z,46.73
2023-02-08T18:31:34.665Z,43.77
2023-02-08T18:34:37.949Z,42.93
2023-02-08T18:37:42.467Z,40.87
2023-02-08T18:40:45.542Z,46.67
2023-02-08T18:43:49.934Z,44.20
2023-02-08T18:46:53.610Z,43.63
2023-02-08T18:49:57.904Z,42.97
2023-02-08T18:53:02.730Z,48.17
2023-02-08T18:56:09.590Z,42.10
2023-02-08T18:59:14.152Z,43.07
2023-02-08T19:02:21.156Z,45.27
2023-02-08T19:06:09.851Z,40.37
2023-02-08T19:09:33.088Z,44.03
2023-02-08T19:12:39.791Z,44.67
2023-02-08T19:15:47.106Z,43.27
2023-02-08T19:19:02.948Z,45.70
2023-02-08T19:23:32.976Z,48.87
2023-02-08T19:37:50.383Z,45.50
2023-02-08T19:41:30.898Z,50.23
2023-02-08T19:49:08.694Z,45.87
2023-02-08T19:52:13.267Z,49.47
2023-02-08T19:55:17.014Z,46.57
2023-02-08T19:58:20.201Z,46.67
2023-02-08T20:01:27.439Z,45.67
2023-02-08T20:04:33.311Z,42.03
2023-02-08T20:07:40.973Z,47.83
2023-02-08T20:10:47.051Z,46.07
2023-02-08T20:13:54.887Z,43.53
2023-02-08T20:16:58.966Z,39.13
2023-02-08T20:20:02.010Z,44.73
2023-02-08T20:23:20.866Z,44.20
2023-02-08T20:26:27.795Z,46.07
2023-02-08T20:29:31.047Z,45.60
2023-02-08T20:32:34.150Z,46.60
2023-02-08T20:35:43.259Z,47.67
2023-02-08T20:38:49.041Z,46.83
2023-02-08T20:41:52.146Z,50.93
2023-02-08T20:44:55.505Z,40.80
2023-02-08T20:47:58.622Z,42.77
2023-02-08T20:51:07.096Z,42.53
2023-02-08T20:54:12.698Z,43.47
2023-02-08T20:57:18.151Z,41.30
2023-02-08T21:00:27.947Z,44.70
2023-02-08T21:03:37.287Z,39.83
2023-02-08T21:06:44.515Z,45.47
2023-02-08T21:09:49.210Z,38.03
2023-02-08T21:12:52.488Z,37.43
2023-02-08T21:15:55.848Z,40.47
2023-02-08T21:18:59.725Z,44.70
2023-02-08T21:22:04.230Z,44.10
2023-02-08T21:25:10.070Z,37.03
2023-02-08T21:28:13.871Z,40.70
2023-02-08T21:31:23.054Z,42.67
2023-02-08T21:34:26.409Z,38.80
2023-02-08T21:37:29.923Z,39.53
2023-02-08T21:40:34.610Z,37.43
2023-02-08T21:43:39.063Z,40.07
2023-02-08T21:46:42.479Z,38.37
2023-02-08T21:50:06.044Z,39.07
2023-02-08T21:53:28.820Z,40.27
2023-02-08T21:56:35.415Z,38.30
2023-02-08T21:59:41.348Z,39.57
2023-02-08T22:02:44.616Z,37.13
2023-02-08T22:06:06.334Z,34.17
2023-02-08T22:09:09.473Z,35.37
2023-02-08T22:12:17.277Z,38.00
2023-02-08T22:15:22.836Z,38.30
2023-02-08T22:18:26.678Z,33.13
2023-02-08T22:21:29.968Z,39.40
2023-02-08T22:24:33.893Z,38.10
2023-02-08T22:27:39.697Z,39.90
2023-02-08T22:30:43.125Z,38.73
2023-02-08T22:33:46.337Z,33.47
2023-02-08T22:36:49.418Z,41.50
2023-02-08T22:39:52.437Z,30.30
2023-02-08T22:42:56.890Z,30.03
2023-02-08T22:46:00.773Z,35.30
2023-02-08T22:49:04.192Z,35.50
2023-02-08T22:52:09.150Z,33.20
2023-02-08T22:55:12.448Z,36.53
2023-02-08T22:58:16.810Z,34.17
2023-02-08T23:01:20.798Z,41.20
2023-02-08T23:04:23.921Z,35.30
2023-02-08T23:07:27.574Z,34.03
2023-02-08T23:10:30.767Z,34.27
2023-02-08T23:13:36.180Z,32.53
2023-02-08T23:16:39.697Z,32.33
2023-02-08T23:19:44.865Z,32.77
2023-02-08T23:22:47.904Z,34.43
2023-02-08T23:25:53.491Z,30.93
2023-02-08T23:28:58.093Z,29.20
2023-02-08T23:32:04.639Z,29.13
2023-02-08T23:35:10.130Z,31.77
2023-02-08T23:38:13.322Z,29.20
2023-02-08T23:41:19.380Z,30.27
2023-02-08T23:44:26.490Z,32.70
2023-02-08T23:47:32.877Z,34.10
2023-02-08T23:50:36.018Z,32.07
2023-02-08T23:53:39.112Z,30.73
2023-02-08T23:56:42.138Z,38.30
2023-02-08T23:59:46.573Z,29.90
